createdAt,value
2019-03-31T00:01:16.143Z,96.43
2019-03-31T00:03:42.627Z,88.73
2019-03-31T00:06:09.039Z,89.40
2019-03-31T00:08:35.452Z,83.70
2019-03-31T00:11:01.847Z,88.10
2019-03-31T00:13:28.258Z,94.83
2019-03-31T00:15:54.659Z,99.77
2019-03-31T00:18:21.011Z,92.43
2019-03-31T00:20:47.332Z,92.13
2019-03-31T00:23:13.681Z,103.20
2019-03-31T00:25:42.015Z,94.63
2019-03-31T00:28:08.358Z,94.90
2019-03-31T00:30:34.884Z,86.07
2019-03-31T00:33:01.279Z,84.33
2019-03-31T00:35:27.696Z,91.43
2019-03-31T00:37:54.107Z,94.83
2019-03-31T00:40:20.501Z,90.60
2019-03-31T00:42:46.875Z,88.00
2019-03-31T00:45:13.323Z,82.50
2019-03-31T00:47:39.695Z,80.50
2019-03-31T00:50:06.551Z,73.87
2019-03-31T00:52:33.012Z,76.43
2019-03-31T00:54:59.483Z,69.17
2019-03-31T00:57:25.930Z,74.27
2019-03-31T00:59:52.283Z,72.37
2019-03-31T01:02:20.675Z,70.53
2019-03-31T01:04:47.300Z,69.20
2019-03-31T01:07:14.774Z,68.93
2019-03-31T01:09:42.140Z,67.03
2019-03-31T01:12:09.449Z,70.80
2019-03-31T01:14:35.846Z,70.10
2019-03-31T01:17:03.374Z,81.20
2019-03-31T01:19:30.308Z,77.57
2019-03-31T01:21:56.882Z,70.77
2019-03-31T01:24:23.370Z,80.80
2019-03-31T01:26:49.800Z,73.57
2019-03-31T01:29:16.306Z,74.00
2019-03-31T01:31:50.196Z,76.90
2019-03-31T01:34:11.112Z,66.27
2019-03-31T01:36:37.838Z,73.47
2019-03-31T01:39:07.924Z,73.53
2019-03-31T01:41:34.900Z,74.73
2019-03-31T01:44:01.304Z,63.30
2019-03-31T01:46:27.833Z,75.00
2019-03-31T01:48:54.278Z,75.83
2019-03-31T01:51:20.695Z,69.27
2019-03-31T01:53:47.118Z,66.43
2019-03-31T01:56:13.565Z,70.20
2019-03-31T01:58:40.014Z,78.97
2019-03-31T02:01:17.630Z,65.93
2019-03-31T02:03:43.985Z,65.83
2019-03-31T02:06:10.382Z,66.60
2019-03-31T02:08:36.796Z,75.23
2019-03-31T02:11:03.216Z,64.63
2019-03-31T02:13:29.630Z,61.33
2019-03-31T02:15:56.109Z,71.90
2019-03-31T02:18:22.443Z,60.63
2019-03-31T02:20:48.913Z,71.73
2019-03-31T02:23:15.340Z,61.30
2019-03-31T02:25:41.760Z,67.83
2019-03-31T02:28:08.119Z,65.50
2019-03-31T02:30:34.497Z,62.43
2019-03-31T02:33:00.828Z,66.80
2019-03-31T02:35:27.242Z,69.17
2019-03-31T02:37:53.576Z,73.83
2019-03-31T02:40:19.966Z,65.97
2019-03-31T02:42:46.367Z,74.50
2019-03-31T02:45:12.656Z,83.80
2019-03-31T02:47:39.014Z,80.10
2019-03-31T02:50:05.822Z,71.30
2019-03-31T02:52:33.307Z,76.07
2019-03-31T02:54:59.687Z,83.90
2019-03-31T02:57:26.630Z,74.03
2019-03-31T02:59:54.589Z,85.07
2019-03-31T03:02:40.223Z,89.97
2019-03-31T03:04:52.976Z,73.93
2019-03-31T03:07:20.541Z,74.97
2019-03-31T03:09:48.150Z,61.67
2019-03-31T03:12:17.077Z,67.77
2019-03-31T03:14:43.945Z,63.97
2019-03-31T03:17:10.343Z,57.43
2019-03-31T03:19:36.816Z,68.27
2019-03-31T03:22:03.293Z,67.03
2019-03-31T03:24:29.645Z,69.30
2019-03-31T03:26:56.164Z,64.37
2019-03-31T03:29:22.702Z,64.63
2019-03-31T03:31:49.105Z,63.10
2019-03-31T03:34:15.484Z,64.63
2019-03-31T03:36:43.411Z,66.73
2019-03-31T03:39:10.104Z,57.10
2019-03-31T03:41:36.525Z,58.43
2019-03-31T03:44:03.153Z,63.97
2019-03-31T03:46:29.821Z,67.50
2019-03-31T03:48:56.341Z,57.43
2019-03-31T03:51:22.704Z,60.17
2019-03-31T03:53:49.096Z,56.67
2019-03-31T03:56:15.495Z,64.97
2019-03-31T03:58:41.880Z,62.30
2019-03-31T04:01:12.971Z,63.63
2019-03-31T04:03:39.367Z,64.17
2019-03-31T04:06:05.807Z,64.93
2019-03-31T04:08:32.239Z,59.80
2019-03-31T04:11:02.926Z,75.10
2019-03-31T04:13:29.324Z,87.60
2019-03-31T04:15:55.724Z,97.83
2019-03-31T04:18:22.162Z,88.93
2019-03-31T04:20:48.538Z,93.03
2019-03-31T04:23:14.946Z,81.97
2019-03-31T04:25:41.318Z,69.60
2019-03-31T04:28:07.749Z,67.13
2019-03-31T04:30:34.113Z,68.33
2019-03-31T04:33:00.465Z,67.50
2019-03-31T04:35:26.881Z,59.90
2019-03-31T04:37:53.197Z,64.00
2019-03-31T04:40:19.606Z,56.90
2019-03-31T04:42:45.965Z,63.93
2019-03-31T04:45:13.408Z,65.13
2019-03-31T04:47:39.819Z,69.63
2019-03-31T04:50:06.647Z,72.17
2019-03-31T04:52:33.012Z,60.27
2019-03-31T04:54:59.392Z,67.77
2019-03-31T04:57:25.780Z,61.30
2019-03-31T04:59:52.231Z,53.63
2019-03-31T05:02:18.621Z,52.73
2019-03-31T05:04:45.031Z,56.03
2019-03-31T05:07:11.407Z,51.67
2019-03-31T05:09:37.812Z,50.60
2019-03-31T05:12:04.239Z,55.00
2019-03-31T05:14:31.807Z,54.30
2019-03-31T05:16:58.236Z,58.07
2019-03-31T05:19:24.671Z,49.13
2019-03-31T05:21:51.116Z,60.13
2019-03-31T05:24:17.467Z,60.07
2019-03-31T05:26:43.815Z,62.00
2019-03-31T05:29:10.210Z,49.30
2019-03-31T05:31:36.675Z,64.30
2019-03-31T05:34:03.027Z,64.83
2019-03-31T05:36:29.418Z,51.47
2019-03-31T05:38:55.793Z,52.70
2019-03-31T05:41:22.215Z,55.27
2019-03-31T05:43:48.621Z,54.40
2019-03-31T05:46:15.059Z,62.97
2019-03-31T05:48:41.499Z,50.43
2019-03-31T05:51:07.884Z,54.93
2019-03-31T05:53:34.254Z,61.40
2019-03-31T05:56:00.647Z,65.40
2019-03-31T05:58:27.052Z,61.13
2019-03-31T06:00:53.536Z,54.57
2019-03-31T06:03:19.906Z,59.33
2019-03-31T06:05:46.313Z,55.93
2019-03-31T06:08:12.684Z,57.60
2019-03-31T06:10:39.087Z,52.37
2019-03-31T06:13:05.456Z,50.70
2019-03-31T06:15:31.940Z,63.70
2019-03-31T06:17:58.186Z,51.63
2019-03-31T06:20:25.177Z,53.43
2019-03-31T06:22:51.711Z,51.83
2019-03-31T06:25:18.127Z,49.20
2019-03-31T06:27:44.437Z,46.37
2019-03-31T06:30:11.063Z,49.30
2019-03-31T06:32:37.425Z,44.37
2019-03-31T06:35:04.882Z,48.23
2019-03-31T06:37:31.266Z,51.17
2019-03-31T06:39:57.702Z,49.10
2019-03-31T06:42:24.120Z,53.60
2019-03-31T06:44:50.465Z,45.77
2019-03-31T06:47:16.842Z,47.83
2019-03-31T06:49:43.159Z,45.53
2019-03-31T06:52:09.608Z,38.70
2019-03-31T06:54:35.940Z,44.57
2019-03-31T06:57:02.391Z,49.73
2019-03-31T06:59:28.743Z,48.10
2019-03-31T07:01:55.132Z,50.63
2019-03-31T07:04:21.546Z,52.97
2019-03-31T07:06:48.005Z,44.23
2019-03-31T07:09:14.424Z,39.33
2019-03-31T07:11:40.862Z,32.67
2019-03-31T07:14:07.282Z,33.03
2019-03-31T07:16:33.714Z,29.07
2019-03-31T07:19:00.188Z,30.47
2019-03-31T07:21:26.608Z,30.50
2019-03-31T07:23:52.993Z,30.60
2019-03-31T07:26:19.406Z,31.30
2019-03-31T07:28:45.774Z,30.13
2019-03-31T07:31:12.198Z,27.83
2019-03-31T07:33:38.619Z,33.93
2019-03-31T07:36:04.990Z,26.97
2019-03-31T07:38:38.706Z,25.80
2019-03-31T07:41:11.989Z,28.60
2019-03-31T07:43:27.853Z,25.20
2019-03-31T07:45:55.875Z,28.90
2019-03-31T07:48:22.457Z,21.27
2019-03-31T07:50:48.864Z,20.47
2019-03-31T07:53:15.287Z,22.97
2019-03-31T07:55:41.737Z,19.10
2019-03-31T07:58:08.194Z,29.20
2019-03-31T08:00:34.559Z,26.80
2019-03-31T08:03:00.951Z,21.27
2019-03-31T08:05:33.904Z,24.23
2019-03-31T08:07:55.472Z,26.27
2019-03-31T08:10:22.081Z,26.87
2019-03-31T08:12:48.576Z,26.80
2019-03-31T08:15:15.114Z,24.32
2019-03-31T08:17:42.922Z,33.10
2019-03-31T08:20:12.044Z,23.70
2019-03-31T08:22:38.671Z,27.37
2019-03-31T08:25:05.879Z,28.77
2019-03-31T08:27:32.292Z,24.73
2019-03-31T08:30:00.768Z,23.23
2019-03-31T08:32:28.510Z,26.30
2019-03-31T08:34:55.219Z,24.43
2019-03-31T08:37:21.593Z,23.15
2019-03-31T08:39:48.015Z,18.40
2019-03-31T08:42:14.400Z,19.30
2019-03-31T08:44:40.832Z,23.20
2019-03-31T08:47:09.080Z,19.85
2019-03-31T08:49:35.503Z,23.00
2019-03-31T08:52:01.950Z,21.50
2019-03-31T08:54:28.376Z,24.90
2019-03-31T08:56:54.774Z,23.20
2019-03-31T08:59:21.207Z,19.87
2019-03-31T09:01:47.571Z,18.67
2019-03-31T09:04:13.930Z,25.70
2019-03-31T09:06:40.284Z,20.97
2019-03-31T09:09:06.919Z,23.67
2019-03-31T09:11:33.346Z,28.13
2019-03-31T09:13:59.708Z,24.60
2019-03-31T09:16:26.051Z,31.20
2019-03-31T09:18:52.455Z,16.67
2019-03-31T09:21:18.916Z,22.33
2019-03-31T09:23:45.356Z,26.93
2019-03-31T09:26:11.793Z,32.27
2019-03-31T09:28:38.167Z,19.57
2019-03-31T09:31:04.565Z,21.80
2019-03-31T09:33:31.103Z,12.70
2019-03-31T09:35:57.566Z,15.97
2019-03-31T09:38:23.979Z,15.53
2019-03-31T09:40:50.645Z,17.17
2019-03-31T09:43:17.187Z,13.00
2019-03-31T09:45:43.626Z,12.13
2019-03-31T09:48:10.161Z,23.97
2019-03-31T09:50:36.551Z,19.97
2019-03-31T09:53:02.939Z,18.37
2019-03-31T09:55:29.399Z,14.40
2019-03-31T09:57:55.860Z,20.00
2019-03-31T10:00:45.992Z,21.47
2019-03-31T10:03:12.463Z,16.43
2019-03-31T10:05:38.794Z,16.43
2019-03-31T10:08:05.200Z,18.80
2019-03-31T10:10:32.055Z,16.30
2019-03-31T10:12:58.750Z,16.93
2019-03-31T10:15:25.083Z,23.30
2019-03-31T10:17:51.484Z,97.03
2019-03-31T10:20:17.851Z,41.13
2019-03-31T10:22:44.206Z,23.07
2019-03-31T10:25:13.345Z,34.87
2019-03-31T10:27:38.893Z,29.93
2019-03-31T10:30:06.195Z,16.27
2019-03-31T10:32:32.671Z,47.70
2019-03-31T10:34:59.087Z,26.47
2019-03-31T10:37:25.461Z,16.27
2019-03-31T10:39:51.931Z,18.07
2019-03-31T10:42:18.247Z,19.10
2019-03-31T10:44:44.620Z,22.87
2019-03-31T10:47:10.948Z,15.93
2019-03-31T10:49:37.360Z,15.63
2019-03-31T10:52:03.745Z,15.30
2019-03-31T10:54:30.151Z,26.80
2019-03-31T10:56:56.577Z,17.00
2019-03-31T10:59:23.003Z,11.07
2019-03-31T11:01:49.469Z,16.10
2019-03-31T11:04:15.903Z,31.37
2019-03-31T11:06:42.342Z,18.97
2019-03-31T11:09:08.800Z,21.07
2019-03-31T11:11:35.291Z,14.28
2019-03-31T11:14:01.704Z,10.90
2019-03-31T11:16:28.115Z,10.23
2019-03-31T11:18:54.530Z,19.90
2019-03-31T11:21:31.792Z,13.60
2019-03-31T11:23:59.339Z,16.80
2019-03-31T11:26:25.717Z,22.70
2019-03-31T11:28:52.178Z,9.60
2019-03-31T11:31:18.596Z,13.30
2019-03-31T11:33:46.135Z,15.43
2019-03-31T11:36:12.624Z,23.77
2019-03-31T11:38:39.177Z,16.77
2019-03-31T11:41:05.665Z,17.40
2019-03-31T11:43:32.158Z,20.83
2019-03-31T11:45:58.664Z,13.30
2019-03-31T11:48:25.233Z,10.73
2019-03-31T11:50:51.643Z,15.30
2019-03-31T11:53:18.029Z,13.67
2019-03-31T11:55:44.402Z,16.40
2019-03-31T11:58:10.836Z,14.30
2019-03-31T12:00:39.149Z,34.87
2019-03-31T12:03:05.585Z,38.00
2019-03-31T12:05:32.016Z,21.07
2019-03-31T12:07:58.467Z,17.63
2019-03-31T12:10:24.839Z,17.37
2019-03-31T12:12:51.318Z,14.40
2019-03-31T12:15:17.740Z,20.93
2019-03-31T12:17:44.161Z,14.00
2019-03-31T12:20:10.994Z,24.23
2019-03-31T12:22:37.401Z,7.83
2019-03-31T12:25:06.334Z,13.07
2019-03-31T12:27:32.771Z,16.57
2019-03-31T12:29:59.182Z,31.97
2019-03-31T12:32:25.642Z,23.13
2019-03-31T12:34:52.304Z,18.20
2019-03-31T12:37:18.710Z,22.20
2019-03-31T12:39:45.833Z,29.40
2019-03-31T12:42:12.447Z,21.90
2019-03-31T12:44:38.895Z,18.73
2019-03-31T12:47:05.360Z,23.40
2019-03-31T12:49:31.958Z,16.50
2019-03-31T12:51:58.407Z,23.40
2019-03-31T12:54:24.863Z,20.83
2019-03-31T12:56:51.273Z,19.90
2019-03-31T12:59:17.730Z,11.00
2019-03-31T13:01:44.308Z,17.07
2019-03-31T13:04:10.711Z,17.83
2019-03-31T13:06:37.167Z,21.50
2019-03-31T13:09:06.260Z,33.27
2019-03-31T13:11:32.730Z,25.80
2019-03-31T13:13:59.605Z,22.65
2019-03-31T13:16:26.050Z,15.37
2019-03-31T13:18:52.470Z,12.88
2019-03-31T13:21:18.966Z,16.65
2019-03-31T13:23:45.404Z,32.10
2019-03-31T13:26:12.122Z,25.68
2019-03-31T13:28:38.519Z,19.85
2019-03-31T13:31:04.977Z,26.15
2019-03-31T13:33:31.410Z,15.68
2019-03-31T13:35:57.846Z,13.20
2019-03-31T13:38:25.006Z,19.30
2019-03-31T13:40:51.425Z,13.55
2019-03-31T13:43:17.991Z,15.90
2019-03-31T13:45:44.330Z,14.40
2019-03-31T13:48:10.916Z,13.90
2019-03-31T13:50:37.489Z,18.60
2019-03-31T13:53:04.111Z,17.40
2019-03-31T13:55:30.542Z,26.17
2019-03-31T13:57:57.975Z,26.00
2019-03-31T14:00:33.774Z,9.57
2019-03-31T14:03:00.224Z,9.48
2019-03-31T14:05:26.722Z,13.13
2019-03-31T14:07:53.169Z,11.05
2019-03-31T14:10:20.203Z,15.50
2019-03-31T14:12:46.830Z,8.55
2019-03-31T14:15:19.445Z,18.23
2019-03-31T14:17:41.502Z,14.83
2019-03-31T14:20:08.573Z,16.05
2019-03-31T14:22:34.943Z,12.40
2019-03-31T14:25:01.374Z,16.48
2019-03-31T14:27:29.394Z,10.35
2019-03-31T14:29:55.866Z,7.50
2019-03-31T14:32:22.277Z,7.93
2019-03-31T14:34:48.731Z,14.50
2019-03-31T14:37:15.131Z,16.87
2019-03-31T14:39:41.564Z,18.73
2019-03-31T14:42:07.997Z,24.07
2019-03-31T14:44:34.370Z,11.47
2019-03-31T14:47:00.853Z,15.33
2019-03-31T14:49:27.196Z,13.73
2019-03-31T14:51:53.579Z,40.17
2019-03-31T14:54:19.933Z,43.30
2019-03-31T14:56:46.321Z,8.90
2019-03-31T14:59:12.657Z,10.27
2019-03-31T15:01:39.111Z,14.10
2019-03-31T15:04:05.467Z,39.10
2019-03-31T15:06:31.865Z,11.87
2019-03-31T15:08:58.199Z,9.27
2019-03-31T15:11:25.582Z,12.83
2019-03-31T15:13:51.903Z,8.57
2019-03-31T15:16:20.528Z,21.77
2019-03-31T15:18:47.046Z,33.17
2019-03-31T15:21:13.410Z,15.10
2019-03-31T15:23:39.771Z,9.90
2019-03-31T15:26:06.152Z,19.90
2019-03-31T15:28:32.490Z,28.77
2019-03-31T15:30:58.882Z,19.43
2019-03-31T15:33:25.351Z,11.77
2019-03-31T15:35:51.871Z,8.27
2019-03-31T15:38:18.288Z,11.67
2019-03-31T15:40:48.342Z,9.57
2019-03-31T15:43:14.074Z,14.00
2019-03-31T15:45:40.454Z,19.53
2019-03-31T15:48:06.876Z,22.73
2019-03-31T15:50:33.305Z,18.97
2019-03-31T15:52:59.685Z,18.63
2019-03-31T15:55:26.036Z,14.17
2019-03-31T15:57:52.533Z,12.60
2019-03-31T16:00:18.990Z,16.60
2019-03-31T16:02:45.385Z,24.07
2019-03-31T16:05:12.966Z,33.53
2019-03-31T16:07:39.523Z,25.73
2019-03-31T16:10:07.633Z,26.63
2019-03-31T16:12:34.046Z,20.33
2019-03-31T16:15:00.445Z,11.70
2019-03-31T16:17:26.790Z,9.23
2019-03-31T16:19:54.321Z,13.47
2019-03-31T16:22:20.761Z,15.80
2019-03-31T16:24:49.063Z,10.47
2019-03-31T16:27:15.542Z,31.03
2019-03-31T16:29:42.009Z,40.80
2019-03-31T16:32:08.461Z,28.53
2019-03-31T16:34:34.887Z,9.37
2019-03-31T16:37:01.323Z,8.77
2019-03-31T16:39:37.442Z,34.87
2019-03-31T16:41:55.973Z,33.57
2019-03-31T16:44:22.380Z,31.90
2019-03-31T16:46:48.814Z,25.47
2019-03-31T16:49:15.209Z,45.03
2019-03-31T16:51:41.579Z,25.70
2019-03-31T16:54:08.016Z,16.70
2019-03-31T16:56:34.447Z,17.63
2019-03-31T16:59:00.850Z,31.00
2019-03-31T17:01:27.314Z,17.80
2019-03-31T17:03:53.708Z,38.73
2019-03-31T17:06:20.147Z,24.63
2019-03-31T17:08:46.552Z,18.50
2019-03-31T17:11:12.938Z,31.07
2019-03-31T17:13:39.363Z,28.43
2019-03-31T17:16:05.802Z,28.03
2019-03-31T17:18:32.243Z,26.33
2019-03-31T17:20:58.647Z,24.13
2019-03-31T17:23:25.063Z,16.93
2019-03-31T17:25:51.517Z,25.47
2019-03-31T17:28:17.912Z,22.10
2019-03-31T17:30:44.273Z,16.33
2019-03-31T17:33:10.704Z,16.53
2019-03-31T17:35:37.064Z,18.27
2019-03-31T17:38:03.477Z,22.07
2019-03-31T17:40:29.940Z,14.47
2019-03-31T17:42:56.346Z,32.77
2019-03-31T17:45:22.839Z,24.50
2019-03-31T17:47:49.245Z,43.40
2019-03-31T17:50:15.695Z,44.50
2019-03-31T17:52:42.116Z,56.33
2019-03-31T17:55:08.641Z,44.20
2019-03-31T17:57:35.069Z,44.07
2019-03-31T18:00:03.798Z,36.33
2019-03-31T18:02:30.518Z,31.07
2019-03-31T18:04:57.121Z,45.93
2019-03-31T18:07:23.824Z,60.57
2019-03-31T18:09:50.399Z,157.60
2019-03-31T18:12:16.976Z,193.33
2019-03-31T18:14:43.539Z,185.67
2019-03-31T18:17:10.244Z,291.83
2019-03-31T18:19:36.942Z,241.37
2019-03-31T18:22:15.890Z,203.57
2019-03-31T18:24:31.839Z,221.63
2019-03-31T18:26:58.249Z,192.13
2019-03-31T18:29:25.068Z,175.93
2019-03-31T18:31:51.489Z,128.87
2019-03-31T18:34:17.951Z,130.07
2019-03-31T18:36:45.116Z,109.23
2019-03-31T18:39:11.551Z,71.93
2019-03-31T18:41:38.491Z,105.47
2019-03-31T18:44:06.279Z,153.50
2019-03-31T18:46:33.178Z,113.87
2019-03-31T18:48:59.655Z,100.97
2019-03-31T18:51:26.212Z,94.93
2019-03-31T18:54:03.540Z,94.27
2019-03-31T18:56:49.142Z,116.70
2019-03-31T18:59:36.040Z,147.20
2019-03-31T19:02:07.373Z,133.47
2019-03-31T19:04:36.143Z,119.73
2019-03-31T19:07:21.309Z,96.07
2019-03-31T19:09:49.844Z,135.47
2019-03-31T19:12:21.226Z,94.20
2019-03-31T19:14:52.678Z,80.17
2019-03-31T19:17:24.027Z,171.13
2019-03-31T19:19:52.601Z,181.93
2019-03-31T19:22:23.586Z,173.30
2019-03-31T19:24:54.988Z,151.23
2019-03-31T19:27:23.361Z,123.77
2019-03-31T19:29:51.714Z,101.10
2019-03-31T19:32:20.057Z,92.07
2019-03-31T19:35:06.740Z,90.27
2019-03-31T19:37:51.814Z,120.93
2019-03-31T19:40:21.623Z,151.27
2019-03-31T19:43:06.159Z,150.23
2019-03-31T19:45:34.836Z,158.33
2019-03-31T19:48:09.629Z,140.97
2019-03-31T19:50:38.329Z,159.47
2019-03-31T19:53:23.409Z,149.17
2019-03-31T19:56:07.527Z,155.20
2019-03-31T19:58:34.086Z,176.83
2019-03-31T20:01:05.297Z,206.13
2019-03-31T20:03:49.000Z,290.97
2019-03-31T20:06:17.353Z,323.57
2019-03-31T20:08:45.728Z,301.73
2019-03-31T20:11:17.121Z,246.83
2019-03-31T20:14:02.229Z,299.20
2019-03-31T20:16:36.926Z,262.77
2019-03-31T20:19:23.550Z,235.23
2019-03-31T20:22:08.637Z,166.37
2019-03-31T20:24:53.370Z,105.43
2019-03-31T20:27:34.013Z,109.10
2019-03-31T20:30:11.751Z,65.27
2019-03-31T20:32:45.969Z,69.90
2019-03-31T20:35:31.509Z,92.00
2019-03-31T20:37:59.874Z,82.87
2019-03-31T20:40:28.212Z,88.37
2019-03-31T20:43:13.006Z,76.70
2019-03-31T20:45:39.478Z,73.30
2019-03-31T20:48:05.936Z,79.10
2019-03-31T20:50:32.490Z,80.80
2019-03-31T20:52:58.936Z,42.47
2019-03-31T20:55:25.377Z,37.17
2019-03-31T20:57:51.782Z,37.43
2019-03-31T21:00:18.410Z,29.37
2019-03-31T21:02:44.990Z,27.53
2019-03-31T21:05:11.470Z,32.07
2019-03-31T21:07:37.861Z,36.07
2019-03-31T21:10:05.288Z,32.23
2019-03-31T21:12:32.644Z,33.50
2019-03-31T21:14:59.009Z,24.50
2019-03-31T21:17:25.427Z,32.83
2019-03-31T21:19:51.891Z,41.03
2019-03-31T21:22:18.315Z,48.27
2019-03-31T21:24:44.714Z,50.07
2019-03-31T21:27:12.113Z,38.80
2019-03-31T21:29:38.457Z,34.70
2019-03-31T21:32:04.931Z,30.00
2019-03-31T21:34:31.403Z,22.17
2019-03-31T21:36:57.828Z,25.57
2019-03-31T21:39:24.264Z,26.27
2019-03-31T21:41:50.725Z,28.30
2019-03-31T21:44:17.143Z,27.90
2019-03-31T21:46:43.630Z,29.30
2019-03-31T21:49:10.102Z,24.83
2019-03-31T21:51:36.530Z,31.47
2019-03-31T21:54:03.052Z,28.33
2019-03-31T21:56:29.477Z,26.77
2019-03-31T21:58:55.833Z,29.77
2019-03-31T22:01:23.384Z,32.03
2019-03-31T22:03:49.879Z,31.77
2019-03-31T22:06:16.291Z,33.30
2019-03-31T22:08:42.720Z,33.47
2019-03-31T22:11:09.131Z,33.23
2019-03-31T22:13:35.479Z,29.03
2019-03-31T22:16:01.866Z,31.30
2019-03-31T22:18:28.232Z,26.23
2019-03-31T22:20:54.642Z,32.10
2019-03-31T22:23:21.020Z,26.37
2019-03-31T22:25:47.499Z,28.47
2019-03-31T22:28:15.011Z,33.80
2019-03-31T22:30:41.375Z,34.57
2019-03-31T22:33:07.771Z,35.97
2019-03-31T22:35:34.258Z,33.43
2019-03-31T22:38:02.427Z,28.77
2019-03-31T22:40:28.874Z,24.80
2019-03-31T22:42:55.227Z,25.13
2019-03-31T22:45:21.594Z,28.20
2019-03-31T22:47:47.952Z,24.10
2019-03-31T22:50:14.710Z,32.43
2019-03-31T22:52:41.172Z,24.67
2019-03-31T22:55:07.511Z,25.30
2019-03-31T22:57:33.871Z,26.37
2019-03-31T23:00:00.363Z,26.00
2019-03-31T23:02:26.976Z,26.13
2019-03-31T23:04:53.315Z,26.07
2019-03-31T23:07:19.721Z,28.07
2019-03-31T23:09:46.144Z,30.07
2019-03-31T23:12:12.547Z,23.37
2019-03-31T23:14:38.972Z,28.23
2019-03-31T23:17:05.347Z,24.27
2019-03-31T23:19:31.743Z,26.23
2019-03-31T23:21:58.159Z,32.40
2019-03-31T23:24:24.578Z,24.30
2019-03-31T23:26:50.945Z,22.60
2019-03-31T23:29:17.265Z,19.47
2019-03-31T23:31:43.617Z,20.60
2019-03-31T23:34:09.953Z,22.23
2019-03-31T23:36:36.337Z,27.53
2019-03-31T23:39:05.106Z,27.63
2019-03-31T23:41:31.473Z,20.43
2019-03-31T23:43:57.881Z,36.67
2019-03-31T23:46:24.356Z,20.77
2019-03-31T23:48:50.746Z,34.77
2019-03-31T23:51:17.063Z,33.13
2019-03-31T23:53:43.465Z,31.70
2019-03-31T23:56:09.813Z,33.70
2019-03-31T23:58:36.203Z,25.43
